Allenville, Missouri
Current Conditions -  °F | °C
As of 11:20 PM on Wednesday 26 Nov 2014 (Local Time) from KCGI Reporting Station
Overcast Overcast  
Wind Chill: 30°   Ceiling: 4100
Heat Index: 38°   Visibility: 10mi
Dew Point: 35°   Wind: 12mph
Humidity: 89%   Direction: 300°WNW
Pressure: 30.15"   Gusts: NA
Location:  37.1651°N, 89.623°W
Report Text: KCGI 270520Z AUTO 30010KT 10SM FEW016 OVC041 03/02 A3015 RMK AO2 T00330017 TSNO
Loading
Personal Weather Stations






























Interactive Weather Map New forecast layout! Learn more

10-Day Weather Forecast

Advertisements
Track Severe Weather on mobile